• Join FlightAware (Why Join?)
  • Login
  • US Flag 
10:21AM EDT


 

Airport Tracker/Info


-or-


 

Live Flight TrackerFlight Track Log ✈ UAL5911 ✈ 23-Apr-2013 ✈ KORD - KPIA

Flight Track Log - Related Links

Times and Time Zones

All times are in EDT time to prevent confusion due to time zone crossing. See the UAL5911 flight status page for this flight to view local times or setup timezone preferences in your user account.

Time Position Orientation Groundspeed Altitude Reporting Facility
EDT Latitude Longitude Course Direction KTS MPH feet Rate Location/Type
02:29PM 41.9500 -87.9000 270° West 172 198 1,700  Level Chicago TRACON
02:30PM 41.9000 -87.9333 206° Southwest 194 223 4,300 1,740 Climbing Chicago TRACON
02:31PM 41.8667 -87.9833 228° Southwest 251 289 5,100 780 Climbing Chicago TRACON
02:32PM 41.9667 -88.3577 270° West  Level FlightAware Approximate
02:32PM 41.9000 -88.0833 294° West 248 285 6,000  Level Chicago TRACON
02:33PM 41.9667 -88.4721 270° West  Level FlightAware Approximate
02:33PM 41.9903 -88.1742 323° Northwest 287 330 9,800  Level Chicago Center
02:34PM 41.9667 -88.5865 270° West  Level FlightAware Approximate
02:34PM 42.0044 -88.2719 281° West 272 313 11,800  Level Chicago Center
02:35PM 42.0033 -88.3947 269° West 285 328 12,100 120 Climbing Chicago Center
02:36PM 41.9644 -88.4894 241° Southwest 291 335 12,100 -60 Level Chicago Center
02:37PM 41.9247 -88.5933 243° Southwest 309 356 12,000 -60 Descending Chicago Center
02:38PM 41.8819 -88.6989 241° Southwest 323 372 12,000  Level Chicago Center
02:39PM 41.8389 -88.8078 242° Southwest 331 381 12,000  Level Chicago Center
02:41PM 41.7861 -88.9408 242° Southwest 339 390 12,100  Climbing Chicago Center
02:42PM 41.7269 -89.0317 229° Southwest 332 382 12,100  Level Chicago Center
02:43PM 41.6425 -89.0842 205° Southwest 335 386 12,100  Level Chicago Center
02:44PM 41.5597 -89.1364 205° Southwest 335 386 12,100 -120 Level Chicago Center
02:45PM 41.4658 -89.1958 205° Southwest 332 382 11,900 -600 Descending Chicago Center
02:46PM 41.3831 -89.2469 205° Southwest 330 380 10,900 -960 Descending Chicago Center
02:47PM 41.3017 -89.2967 205° Southwest 323 372 10,000 -480 Descending Chicago Center
02:48PM 41.2228 -89.3472 206° Southwest 318 366 10,000 -300 Level Chicago Center
02:49PM 41.1619 -89.3850 205° Southwest 250 288 9,500 -840 Descending Chicago Center
02:50PM 41.0886 -89.4217 201° Southwest 234 269 8,300 -1,080 Descending Chicago Center
02:51PM 41.0247 -89.4328 187° South 234 269 7,300 -960 Descending Chicago Center
02:52PM 40.9656 -89.4433 188° South 224 258 6,300 -1,020 Descending Chicago Center
02:53PM 40.9053 -89.4533 187° South 220 253 5,300 -1,020 Descending Chicago Center
02:54PM 40.8428 -89.4644 188° South 222 255 4,300 -1,020 Descending Chicago Center
02:55PM 40.7864 -89.4756 188° South 210 242 3,300 -960 Descending Chicago Center
02:56PM 40.7294 -89.4856 188° South 206 237 2,400 -480 Descending Chicago Center
02:57PM 40.6592 -89.4983 188° South 209 241 2,400  Level Chicago Center
02:58PM 40.6067 -89.5119 191° South 201 231 2,400  Level Chicago Center
02:59PM 40.5906 -89.5700 250° West 201 231 2,400  Level Chicago Center